Time;durP1;ratioP1;P1;durP2;ratioP2;P2;SDS_P1;SDS_P2;PMS_P1;PMS_P2;Temp;Humidity;BMP_temperature;BMP_pressure;BME280_temperature;BME280_humidity;BME280_pressure;Samples;Min_cycle;Max_cycle;Signal;HPM_P1;HPM_P2
2021/07/23 00:02:22;;;;;;;2.97;1.30;;;19.90;65.40;;;;;;10377367;28;20632;-30
2021/07/23 00:07:44;;;;;;;3.23;1.30;;;19.90;65.30;;;;;;10362348;28;20724;-29
2021/07/23 00:13:06;;;;;;;4.03;1.53;;;19.90;65.30;;;;;;10378313;28;20201;-29
2021/07/23 00:18:30;;;;;;;5.90;1.67;;;19.90;65.20;;;;;;10378291;28;20559;-29
2021/07/23 00:23:52;;;;;;;1.93;1.60;;;19.90;65.10;;;;;;10375198;28;20709;-32
2021/07/23 00:29:14;;;;;;;2.20;1.40;;;19.90;65.20;;;;;;10366185;28;20223;-30
2021/07/23 00:34:37;;;;;;;2.07;1.40;;;19.90;65.10;;;;;;10418077;28;20668;-30
2021/07/23 00:39:59;;;;;;;2.73;1.30;;;19.90;65.10;;;;;;10418775;28;20225;-30
2021/07/23 00:45:21;;;;;;;3.23;1.63;;;19.90;65.10;;;;;;10380331;28;20229;-30
2021/07/23 00:50:45;;;;;;;3.27;1.60;;;19.90;65.00;;;;;;10378231;28;20194;-33
2021/07/23 00:56:07;;;;;;;2.83;1.67;;;19.80;64.80;;;;;;10382720;28;20592;-30
2021/07/23 01:01:30;;;;;;;2.97;1.60;;;19.80;64.70;;;;;;10416447;28;20198;-29
2021/07/23 01:06:54;;;;;;;3.73;1.77;;;19.80;64.50;;;;;;10387887;28;20230;-31
2021/07/23 01:12:17;;;;;;;1.97;1.50;;;19.80;64.20;;;;;;10376859;28;20217;-29
2021/07/23 01:17:41;;;;;;;3.10;1.63;;;19.80;64.10;;;;;;10375771;28;20233;-34
2021/07/23 01:23:07;;;;;;;1.97;1.67;;;19.80;64.10;;;;;;10375080;28;20223;-29
2021/07/23 01:28:32;;;;;;;2.10;1.40;;;19.80;63.60;;;;;;10409434;28;20691;-29
2021/07/23 01:33:54;;;;;;;2.40;1.90;;;19.70;63.00;;;;;;10416423;28;20198;-33
2021/07/23 01:39:18;;;;;;;2.33;1.50;;;19.70;62.70;;;;;;10415536;28;20233;-29
2021/07/23 01:44:41;;;;;;;3.10;1.80;;;19.70;62.50;;;;;;10385838;28;20320;-29
2021/07/23 01:50:03;;;;;;;4.33;2.10;;;19.60;62.30;;;;;;10374799;28;20215;-32
2021/07/23 01:55:25;;;;;;;3.43;1.90;;;19.60;62.20;;;;;;10374238;28;20605;-31
2021/07/23 02:00:49;;;;;;;2.60;1.73;;;19.60;62.00;;;;;;10374198;28;20195;-30
2021/07/23 02:06:11;;;;;;;3.10;1.80;;;19.50;61.80;;;;;;10373321;28;20233;-29
2021/07/23 02:11:33;;;;;;;2.90;2.10;;;19.60;61.80;;;;;;10394634;28;20213;-29
2021/07/23 02:16:56;;;;;;;2.67;1.80;;;19.50;61.50;;;;;;10414083;28;20217;-33
2021/07/23 02:22:19;;;;;;;3.30;1.87;;;19.60;61.50;;;;;;10394583;28;20214;-30
2021/07/23 02:27:41;;;;;;;3.43;1.73;;;19.50;61.40;;;;;;10372898;28;20215;-30
2021/07/23 02:33:04;;;;;;;2.40;1.80;;;19.50;61.30;;;;;;10362525;28;20218;-30
2021/07/23 02:38:26;;;;;;;1.90;1.60;;;19.50;61.40;;;;;;10358087;28;20231;-30
2021/07/23 02:43:49;;;;;;;3.23;1.70;;;19.50;61.30;;;;;;10361797;28;20225;-32
2021/07/23 02:49:13;;;;;;;2.17;1.60;;;19.50;61.20;;;;;;10372642;28;20221;-29
2021/07/23 02:54:35;;;;;;;3.43;1.50;;;19.40;61.20;;;;;;10372968;28;20669;-33
2021/07/23 02:59:57;;;;;;;3.07;1.80;;;19.50;61.20;;;;;;10371954;28;20223;-29
2021/07/23 03:05:20;;;;;;;1.60;1.50;;;19.40;61.10;;;;;;10372522;28;20218;-30
2021/07/23 03:10:42;;;;;;;2.10;1.40;;;19.40;61.00;;;;;;10406114;28;20692;-30
2021/07/23 03:16:09;;;;;;;1.73;1.50;;;19.40;60.90;;;;;;10410974;28;20716;-30
2021/07/23 03:21:32;;;;;;;2.27;1.33;;;19.40;60.90;;;;;;10374289;28;20213;-29
2021/07/23 03:26:54;;;;;;;1.93;1.60;;;19.40;61.00;;;;;;10372082;28;20233;-29
2021/07/23 03:32:16;;;;;;;2.83;1.63;;;19.40;60.90;;;;;;10371126;28;20198;-30
2021/07/23 03:37:40;;;;;;;5.90;1.70;;;19.40;60.60;;;;;;10397705;22;20224;-25
2021/07/23 03:43:02;;;;;;;1.87;1.47;;;19.30;60.50;;;;;;10442263;28;20213;-25
2021/07/23 03:48:24;;;;;;;2.17;1.60;;;19.40;60.50;;;;;;10432892;28;20233;-26
2021/07/23 03:53:47;;;;;;;3.60;1.60;;;19.30;60.40;;;;;;10390674;28;20186;-27
2021/07/23 03:59:10;;;;;;;1.87;1.37;;;19.30;60.50;;;;;;10396640;28;20229;-25
2021/07/23 04:04:32;;;;;;;2.37;1.60;;;19.30;60.60;;;;;;10385786;28;20217;-25
2021/07/23 04:09:55;;;;;;;2.63;1.70;;;19.30;60.70;;;;;;10399016;28;20217;-23
2021/07/23 04:15:17;;;;;;;3.00;1.80;;;19.30;60.70;;;;;;10390554;28;20213;-22
2021/07/23 04:20:39;;;;;;;3.00;1.73;;;19.30;60.70;;;;;;10400532;28;20216;-23
2021/07/23 04:26:04;;;;;;;1.80;1.70;;;19.30;61.40;;;;;;10394255;28;20221;-23
2021/07/23 04:31:26;;;;;;;3.33;1.80;;;19.30;60.90;;;;;;10392788;28;20191;-23
2021/07/23 04:36:48;;;;;;;4.07;1.90;;;19.40;61.20;;;;;;10398296;28;20210;-23
2021/07/23 04:42:12;;;;;;;3.10;2.10;;;19.40;61.50;;;;;;10388088;28;20202;-23
2021/07/23 04:47:34;;;;;;;2.73;1.90;;;19.30;61.40;;;;;;10392877;28;20209;-24
2021/07/23 04:52:57;;;;;;;4.50;1.83;;;19.30;61.50;;;;;;10396659;28;20198;-23
2021/07/23 04:58:20;;;;;;;4.40;1.93;;;19.40;61.80;;;;;;10398935;28;20210;-23
2021/07/23 05:03:42;;;;;;;3.73;1.73;;;19.30;61.90;;;;;;10416741;28;20596;-22
2021/07/23 05:09:05;;;;;;;3.00;1.97;;;19.40;62.40;;;;;;10415459;28;20696;-23
2021/07/23 05:14:31;;;;;;;2.73;1.70;;;19.40;62.60;;;;;;10415426;28;20190;-24
2021/07/23 05:19:53;;;;;;;2.20;1.77;;;19.40;62.80;;;;;;10424792;28;20229;-23
2021/07/23 05:25:15;;;;;;;4.97;2.47;;;19.40;63.20;;;;;;10456853;28;20699;-24
2021/07/23 05:30:38;;;;;;;4.10;2.10;;;19.40;63.80;;;;;;10385957;28;20222;-22
2021/07/23 05:36:00;;;;;;;3.23;2.33;;;19.40;64.40;;;;;;10369157;28;20686;-23
2021/07/23 05:41:23;;;;;;;5.73;2.93;;;19.30;64.70;;;;;;10368664;28;20674;-24
2021/07/23 05:46:46;;;;;;;4.67;2.93;;;19.20;65.20;;;;;;10367387;28;20218;-24
2021/07/23 05:52:08;;;;;;;5.27;3.33;;;19.20;66.20;;;;;;10367393;28;20682;-23
2021/07/23 05:57:30;;;;;;;4.97;2.93;;;19.20;66.90;;;;;;10389762;28;20601;-24
2021/07/23 06:02:54;;;;;;;7.30;3.40;;;19.10;67.50;;;;;;10436938;28;20591;-24
2021/07/23 06:08:18;;;;;;;5.27;3.60;;;19.10;68.20;;;;;;10451422;28;20216;-24
2021/07/23 06:13:40;;;;;;;5.37;3.57;;;19.10;68.90;;;;;;10447365;28;20549;-23
2021/07/23 06:19:03;;;;;;;5.43;3.83;;;19.20;69.40;;;;;;10365422;28;20214;-23
2021/07/23 06:24:25;;;;;;;7.23;3.77;;;19.20;70.00;;;;;;10439790;28;20727;-22
2021/07/23 06:29:48;;;;;;;7.90;3.77;;;19.20;70.60;;;;;;10400202;28;20221;-23
2021/07/23 06:35:12;;;;;;;10.17;4.13;;;19.20;71.10;;;;;;10415452;28;20284;-23
2021/07/23 06:40:34;;;;;;;9.10;3.43;;;19.30;70.70;;;;;;10402394;28;20609;-24
2021/07/23 06:45:57;;;;;;;4.90;3.10;;;19.50;70.50;;;;;;10407124;28;20214;-23
2021/07/23 06:51:20;;;;;;;4.57;3.03;;;19.60;70.10;;;;;;10371632;28;20223;-24
2021/07/23 06:56:42;;;;;;;3.83;3.27;;;19.70;69.50;;;;;;10366256;28;20215;-25
2021/07/23 07:02:05;;;;;;;7.33;2.90;;;19.70;70.00;;;;;;10364745;28;20698;-22
2021/07/23 07:07:29;;;;;;;5.20;3.30;;;19.70;69.30;;;;;;10363396;28;20597;-25
2021/07/23 07:12:56;;;;;;;5.30;3.60;;;19.80;70.40;;;;;;10364139;28;20697;-23
2021/07/23 07:18:18;;;;;;;3.50;3.00;;;19.80;70.50;;;;;;10403682;28;20282;-23
2021/07/23 07:23:41;;;;;;;3.67;3.27;;;19.80;70.20;;;;;;10380727;28;20214;-23
2021/07/23 07:29:03;;;;;;;4.23;3.00;;;19.80;70.90;;;;;;10390010;28;20686;-23
2021/07/23 07:34:25;;;;;;;7.53;3.10;;;19.80;71.40;;;;;;10363881;28;20194;-23
2021/07/23 07:39:49;;;;;;;4.80;3.50;;;19.80;71.60;;;;;;10374044;28;20236;-24
2021/07/23 07:45:12;;;;;;;4.50;2.63;;;19.90;71.80;;;;;;10374768;28;20234;-23
2021/07/23 07:50:34;;;;;;;3.53;2.80;;;19.80;71.90;;;;;;10362514;28;20222;-25
2021/07/23 07:55:57;;;;;;;3.90;3.33;;;19.90;72.00;;;;;;10364448;28;20198;-25
2021/07/23 08:01:20;;;;;;;3.73;3.33;;;19.90;72.10;;;;;;10390471;28;20632;-24
2021/07/23 08:06:43;;;;;;;5.40;3.50;;;19.90;72.00;;;;;;10404298;28;20220;-24
2021/07/23 08:12:07;;;;;;;3.60;2.83;;;19.90;72.00;;;;;;10404089;28;20193;-25
2021/07/23 08:17:29;;;;;;;4.50;3.40;;;20.00;72.10;;;;;;10403408;28;20225;-26
2021/07/23 08:22:52;;;;;;;3.37;2.60;;;20.00;72.20;;;;;;10408085;28;20589;-25
2021/07/23 08:28:16;;;;;;;7.07;3.30;;;20.00;72.10;;;;;;10417939;28;20228;-25
2021/07/23 08:33:38;;;;;;;6.20;3.70;;;20.00;73.00;;;;;;10409060;28;20240;-25
2021/07/23 08:39:00;;;;;;;6.60;3.67;;;19.90;73.40;;;;;;10396371;28;20744;-26
2021/07/23 08:44:25;;;;;;;7.33;3.00;;;19.90;73.50;;;;;;10369621;28;20214;-25
2021/07/23 08:49:47;;;;;;;4.30;2.87;;;19.90;73.80;;;;;;10370194;28;20224;-24
2021/07/23 08:55:11;;;;;;;3.87;3.00;;;19.90;73.70;;;;;;10369803;28;20198;-22
2021/07/23 09:00:35;;;;;;;4.33;2.83;;;19.90;73.30;;;;;;10369322;28;20722;-25
2021/07/23 09:05:58;;;;;;;4.10;3.07;;;19.90;73.20;;;;;;10369361;28;20214;-24
2021/07/23 09:11:27;;;;;;;3.30;3.00;;;19.90;73.30;;;;;;10371613;28;20704;-24
2021/07/23 09:16:55;;;;;;;3.90;2.87;;;19.90;73.40;;;;;;10383070;28;20222;-22
2021/07/23 09:22:18;;;;;;;3.00;2.70;;;19.90;73.50;;;;;;10416608;28;20187;-22
2021/07/23 09:27:40;;;;;;;3.57;2.90;;;19.90;73.90;;;;;;10374400;28;20233;-23
2021/07/23 09:33:04;;;;;;;2.50;2.20;;;19.90;74.00;;;;;;10372942;28;20198;-23
2021/07/23 09:38:33;;;;;;;2.37;2.17;;;19.90;74.10;;;;;;10435344;23;20701;-32
2021/07/23 09:44:00;;;;;;;3.17;2.37;;;19.90;74.10;;;;;;10413479;28;20214;-29
2021/07/23 09:49:26;;;;;;;3.10;2.40;;;19.90;74.00;;;;;;10399309;28;20213;-29
2021/07/23 09:54:48;;;;;;;6.47;2.30;;;19.90;73.40;;;;;;10391906;28;20194;-32
2021/07/23 10:00:14;;;;;;;2.77;2.47;;;20.00;73.00;;;;;;10385029;28;20231;-29
2021/07/23 10:05:43;;;;;;;2.27;2.07;;;20.00;72.70;;;;;;10395641;28;20218;-30
2021/07/23 10:11:08;;;;;;;2.20;2.00;;;20.00;72.60;;;;;;10408814;28;20221;-30
2021/07/23 10:16:32;;;;;;;3.10;2.13;;;20.10;72.60;;;;;;10408479;28;20382;-31
2021/07/23 10:21:57;;;;;;;2.23;2.03;;;20.10;72.70;;;;;;10390998;28;20770;-29
2021/07/23 10:27:23;;;;;;;3.83;2.53;;;20.10;73.00;;;;;;10387205;28;20226;-29
2021/07/23 10:32:45;;;;;;;3.87;2.50;;;20.00;73.10;;;;;;10412060;28;20202;-28
2021/07/23 10:38:08;;;;;;;3.67;2.53;;;20.10;73.20;;;;;;10376696;28;20236;-28
2021/07/23 10:43:37;;;;;;;2.50;2.20;;;20.10;73.20;;;;;;10371340;28;20670;-28
2021/07/23 10:48:59;;;;;;;4.53;2.30;;;20.10;73.60;;;;;;10385735;28;20226;-28
2021/07/23 10:54:24;;;;;;;3.97;2.40;;;20.00;73.90;;;;;;10411853;28;20283;-28
2021/07/23 10:59:54;;;;;;;5.13;2.00;;;20.00;74.10;;;;;;10380158;28;20214;-28
2021/07/23 11:05:19;;;;;;;2.83;2.10;;;20.00;73.90;;;;;;10401767;28;20251;-28
2021/07/23 11:10:42;;;;;;;3.67;2.40;;;20.00;74.00;;;;;;10372006;28;20740;-28
2021/07/23 11:16:14;;;;;;;9.37;3.40;;;20.00;73.80;;;;;;10387965;28;20209;-28
2021/07/23 11:21:39;;;;;;;10.20;4.00;;;20.00;73.90;;;;;;10391877;28;20720;-33
2021/07/23 11:27:03;;;;;;;8.30;4.03;;;20.00;74.10;;;;;;10382449;28;20262;-28
2021/07/23 11:32:25;;;;;;;6.47;3.50;;;20.00;73.70;;;;;;10369925;28;20197;-28
2021/07/23 11:37:48;;;;;;;10.30;3.57;;;20.00;73.60;;;;;;10369468;28;20229;-28
2021/07/23 11:43:20;;;;;;;5.70;3.63;;;19.90;73.80;;;;;;10369641;28;20202;-29
2021/07/23 11:48:50;;;;;;;5.57;3.20;;;19.90;73.60;;;;;;10395313;28;20578;-29
2021/07/23 11:54:12;;;;;;;6.63;3.50;;;19.90;73.60;;;;;;10409581;28;20186;-30
2021/07/23 11:59:38;;;;;;;4.60;2.87;;;20.00;73.70;;;;;;10387499;28;20222;-30
2021/07/23 12:05:11;;;;;;;5.00;2.93;;;20.00;73.50;;;;;;10368170;28;20229;-31
2021/07/23 12:10:33;;;;;;;5.13;3.23;;;20.00;73.50;;;;;;10369168;28;20641;-28
2021/07/23 12:15:58;;;;;;;4.37;3.20;;;20.00;73.70;;;;;;10381548;28;20222;-28
2021/07/23 12:21:24;;;;;;;4.10;2.77;;;20.00;73.80;;;;;;10401996;28;20240;-32
2021/07/23 12:26:47;;;;;;;4.93;2.80;;;20.00;73.70;;;;;;10380416;28;20313;-30
2021/07/23 12:32:15;;;;;;;3.27;2.77;;;20.00;73.60;;;;;;10369601;28;20880;-30
2021/07/23 12:37:37;;;;;;;3.20;2.67;;;20.00;73.60;;;;;;10370118;28;20218;-29
2021/07/23 12:43:11;;;;;;;4.73;2.97;;;20.00;73.70;;;;;;10370157;28;20205;-29
2021/07/23 12:48:36;;;;;;;5.20;2.87;;;20.00;73.70;;;;;;10369024;28;20222;-28
2021/07/23 12:53:58;;;;;;;3.70;2.53;;;20.00;73.20;;;;;;10370368;28;20198;-29
2021/07/23 12:59:24;;;;;;;7.23;2.93;;;20.10;73.30;;;;;;10392611;28;20728;-30
2021/07/23 13:04:49;;;;;;;4.90;2.80;;;20.10;73.30;;;;;;10403408;28;20222;-32
2021/07/23 13:10:15;;;;;;;3.83;3.10;;;20.10;73.70;;;;;;10377198;28;20218;-29
2021/07/23 13:15:37;;;;;;;5.47;2.90;;;20.10;73.30;;;;;;10374503;28;20566;-29
2021/07/23 13:21:02;;;;;;;5.77;3.77;;;20.10;73.30;;;;;;10381604;28;20601;-29
2021/07/23 13:26:24;;;;;;;4.10;3.37;;;20.10;73.20;;;;;;10397232;28;20225;-31
2021/07/23 13:31:46;;;;;;;5.30;3.20;;;20.10;73.20;;;;;;10413153;28;20218;-28
2021/07/23 13:37:13;;;;;;;3.90;3.27;;;20.10;73.30;;;;;;10414914;28;20197;-28
2021/07/23 13:42:36;;;;;;;3.37;3.07;;;20.10;73.30;;;;;;10414616;28;20749;-32
2021/07/23 13:47:59;;;;;;;4.07;3.53;;;20.20;73.30;;;;;;10414555;28;20224;-31
2021/07/23 13:53:22;;;;;;;5.30;3.70;;;20.20;73.40;;;;;;10377839;28;20685;-29
2021/07/23 13:58:44;;;;;;;5.37;3.90;;;20.20;73.30;;;;;;10389935;28;20581;-31
2021/07/23 14:04:06;;;;;;;4.33;3.77;;;20.20;73.30;;;;;;10392046;28;20194;-30
2021/07/23 14:09:30;;;;;;;3.93;3.40;;;20.20;73.30;;;;;;10372486;28;20401;-29
2021/07/23 14:14:52;;;;;;;5.90;4.17;;;20.20;73.50;;;;;;10378786;28;20245;-30
2021/07/23 14:20:14;;;;;;;4.10;3.70;;;20.20;73.40;;;;;;10388811;28;20218;-34
2021/07/23 14:25:38;;;;;;;3.87;3.43;;;20.20;73.40;;;;;;10388878;28;20217;-33
2021/07/23 14:31:00;;;;;;;4.00;3.60;;;20.20;73.40;;;;;;10389002;28;20218;-29
2021/07/23 14:36:22;;;;;;;5.30;3.57;;;20.20;73.30;;;;;;10373327;28;20187;-28
2021/07/23 14:41:45;;;;;;;5.40;3.63;;;20.20;73.30;;;;;;10371379;28;20226;-29
2021/07/23 14:47:07;;;;;;;4.40;3.53;;;20.20;73.30;;;;;;10372645;28;20221;-30
2021/07/23 14:52:29;;;;;;;6.03;4.10;;;20.20;73.20;;;;;;10372884;28;20206;-30
2021/07/23 14:57:53;;;;;;;3.83;3.40;;;20.20;73.30;;;;;;10384531;28;20218;-31
2021/07/23 15:03:15;;;;;;;3.60;3.30;;;20.20;73.30;;;;;;10396670;28;20206;-28
2021/07/23 15:08:37;;;;;;;7.60;3.80;;;20.20;73.30;;;;;;10411668;28;20225;-28
2021/07/23 15:14:02;;;;;;;3.90;3.50;;;20.20;73.20;;;;;;10411509;28;20550;-29
2021/07/23 15:19:24;;;;;;;4.30;3.90;;;20.20;73.30;;;;;;10403090;28;20222;-28
2021/07/23 15:24:47;;;;;;;5.87;4.43;;;20.20;73.20;;;;;;10408950;28;20213;-29
2021/07/23 15:30:11;;;;;;;4.40;4.00;;;20.20;73.50;;;;;;10406213;28;20218;-31
2021/07/23 15:35:34;;;;;;;4.00;3.60;;;20.20;73.50;;;;;;10412107;28;20355;-30
2021/07/23 15:40:56;;;;;;;3.50;3.20;;;20.10;73.30;;;;;;10394476;23;20234;-22
2021/07/23 15:46:19;;;;;;;4.90;3.37;;;20.10;73.20;;;;;;10389630;28;20490;-24
2021/07/23 15:51:41;;;;;;;4.30;3.60;;;20.10;72.90;;;;;;10406684;28;20220;-24
2021/07/23 15:57:04;;;;;;;6.57;3.90;;;20.10;73.20;;;;;;10411121;28;20193;-25
2021/07/23 16:02:27;;;;;;;3.33;3.03;;;20.20;73.30;;;;;;10405344;28;20240;-25
2021/07/23 16:07:49;;;;;;;4.03;3.13;;;20.20;73.20;;;;;;10408178;28;20222;-23
2021/07/23 16:13:12;;;;;;;3.90;3.23;;;20.10;74.00;;;;;;10409893;28;20205;-23
2021/07/23 16:18:35;;;;;;;5.23;3.67;;;20.10;72.90;;;;;;10410230;28;20217;-23
2021/07/23 16:24:05;;;;;;;5.27;3.77;;;20.10;72.70;;;;;;10409864;28;20202;-24
2021/07/23 16:29:27;;;;;;;3.90;3.47;;;20.10;72.70;;;;;;10405943;28;20246;-26
2021/07/23 16:34:51;;;;;;;3.90;3.50;;;20.10;72.40;;;;;;10409915;28;20198;-23
2021/07/23 16:40:14;;;;;;;8.23;3.90;;;20.10;72.50;;;;;;10409202;28;20221;-23
2021/07/23 16:45:37;;;;;;;6.13;3.27;;;20.10;72.30;;;;;;10418053;28;20435;-24
2021/07/23 16:51:01;;;;;;;5.03;3.47;;;20.10;72.70;;;;;;10412897;28;20213;-23
2021/07/23 16:56:23;;;;;;;3.83;3.37;;;20.10;72.80;;;;;;10414258;28;20186;-24
2021/07/23 17:01:45;;;;;;;3.93;3.43;;;20.10;72.60;;;;;;10406381;28;20232;-24
2021/07/23 17:07:09;;;;;;;4.47;3.23;;;20.10;72.70;;;;;;10416633;28;20720;-24
2021/07/23 17:12:33;;;;;;;5.23;3.00;;;20.10;72.90;;;;;;10416077;28;20724;-25
2021/07/23 17:17:58;;;;;;;4.00;3.60;;;20.00;72.80;;;;;;10416585;28;20623;-23
2021/07/23 17:23:23;;;;;;;3.87;3.27;;;20.00;72.80;;;;;;10414936;28;20197;-26
2021/07/23 17:28:45;;;;;;;3.70;3.23;;;20.10;72.90;;;;;;10414390;28;20705;-23
2021/07/23 17:34:07;;;;;;;4.13;3.30;;;20.10;72.80;;;;;;10413671;28;20201;-25
2021/07/23 17:39:31;;;;;;;5.70;3.70;;;20.00;72.60;;;;;;10408439;28;20691;-25
2021/07/23 17:45:06;;;;;;;3.37;3.03;;;20.00;73.00;;;;;;10404790;28;20205;-24
2021/07/23 17:50:28;;;;;;;3.87;3.23;;;20.00;73.30;;;;;;10409369;28;20234;-24
2021/07/23 17:55:52;;;;;;;4.77;3.30;;;20.00;73.50;;;;;;10407070;28;20201;-25
2021/07/23 18:01:14;;;;;;;7.07;4.00;;;20.00;73.40;;;;;;10406806;28;20600;-26
2021/07/23 18:06:36;;;;;;;4.17;3.43;;;19.90;73.60;;;;;;10408161;28;20213;-23
2021/07/23 18:12:00;;;;;;;5.23;3.80;;;19.90;73.70;;;;;;10408222;28;20228;-24
2021/07/23 18:17:22;;;;;;;4.37;3.13;;;19.90;73.80;;;;;;10403925;28;20198;-25
2021/07/23 18:22:45;;;;;;;6.87;4.17;;;19.80;74.00;;;;;;10403305;28;20193;-25
2021/07/23 18:28:08;;;;;;;3.80;3.40;;;19.80;74.50;;;;;;10407702;28;20225;-24
2021/07/23 18:33:32;;;;;;;4.40;3.47;;;19.80;74.60;;;;;;10400096;28;20201;-25
2021/07/23 18:38:54;;;;;;;3.93;3.53;;;19.80;74.80;;;;;;10371908;28;20225;-25
2021/07/23 18:44:17;;;;;;;3.77;3.47;;;19.70;75.30;;;;;;10403759;28;20533;-25
2021/07/23 18:49:41;;;;;;;4.33;3.93;;;19.70;75.10;;;;;;10404286;28;20218;-23
2021/07/23 18:55:07;;;;;;;4.83;3.43;;;19.70;75.30;;;;;;10406003;28;20217;-25
2021/07/23 19:00:30;;;;;;;4.27;3.80;;;19.70;75.40;;;;;;10402838;28;20570;-25
2021/07/23 19:05:53;;;;;;;5.30;3.93;;;19.70;75.40;;;;;;10401593;28;20221;-23
2021/07/23 19:11:15;;;;;;;4.53;3.50;;;19.70;75.60;;;;;;10404790;28;20214;-24
2021/07/23 19:16:39;;;;;;;8.33;4.10;;;19.60;76.00;;;;;;10403776;28;20668;-24
2021/07/23 19:22:01;;;;;;;4.60;3.37;;;19.50;76.30;;;;;;10403264;28;20639;-24
2021/07/23 19:27:23;;;;;;;4.23;3.37;;;19.40;76.80;;;;;;10405700;28;20221;-23
2021/07/23 19:32:47;;;;;;;5.53;3.50;;;19.40;77.20;;;;;;10404869;28;20190;-24
2021/07/23 19:38:10;;;;;;;3.77;3.37;;;19.30;77.40;;;;;;10406775;28;20299;-23
2021/07/23 19:43:32;;;;;;;5.20;3.60;;;19.20;77.70;;;;;;10400421;28;20206;-24
2021/07/23 19:48:56;;;;;;;6.07;3.60;;;19.10;77.80;;;;;;10401786;28;20232;-23
2021/07/23 19:54:18;;;;;;;6.03;4.10;;;19.10;77.90;;;;;;10404950;28;20202;-23
2021/07/23 19:59:40;;;;;;;4.50;4.07;;;19.10;77.60;;;;;;10409521;28;20217;-24
2021/07/23 20:05:03;;;;;;;3.80;3.40;;;19.10;77.80;;;;;;10410538;28;20198;-23
2021/07/23 20:10:25;;;;;;;5.53;3.93;;;19.20;77.40;;;;;;10410228;28;20229;-23
2021/07/23 20:15:48;;;;;;;4.40;3.50;;;19.30;77.10;;;;;;10411423;28;20186;-23
2021/07/23 20:21:11;;;;;;;5.27;4.27;;;19.30;76.40;;;;;;10419071;28;20343;-23
2021/07/23 20:26:34;;;;;;;5.60;3.37;;;19.20;76.60;;;;;;10417217;28;20229;-24
2021/07/23 20:31:56;;;;;;;4.37;3.97;;;19.20;76.40;;;;;;10417022;28;20696;-24
2021/07/23 20:37:20;;;;;;;5.53;4.50;;;19.00;77.00;;;;;;10419042;28;20197;-24
2021/07/23 20:42:42;;;;;;;5.00;4.03;;;19.00;77.10;;;;;;10417556;28;20228;-25
2021/07/23 20:48:04;;;;;;;4.43;4.03;;;19.10;76.60;;;;;;10418264;28;20214;-23
2021/07/23 20:53:28;;;;;;;6.10;3.97;;;19.10;76.90;;;;;;10417573;28;20198;-25
2021/07/23 20:58:50;;;;;;;5.27;4.40;;;19.00;76.70;;;;;;10417086;28;20218;-23
2021/07/23 21:04:12;;;;;;;4.47;3.87;;;18.90;77.10;;;;;;10416565;28;20193;-26
2021/07/23 21:09:36;;;;;;;6.70;4.23;;;18.90;77.10;;;;;;10376261;28;20237;-24
2021/07/23 21:14:58;;;;;;;5.03;4.53;;;18.70;77.30;;;;;;10376001;28;20261;-24
2021/07/23 21:20:20;;;;;;;6.13;4.43;;;18.70;77.40;;;;;;10379497;28;20202;-25
2021/07/23 21:25:44;;;;;;;4.53;3.80;;;18.70;77.40;;;;;;10415436;28;20198;-25
2021/07/23 21:31:06;;;;;;;5.07;3.87;;;18.80;77.20;;;;;;10391325;28;20226;-24
2021/07/23 21:36:28;;;;;;;4.00;3.60;;;18.80;76.80;;;;;;10408113;28;20190;-24
2021/07/23 21:41:53;;;;;;;5.97;4.00;;;18.70;76.90;;;;;;10421940;23;20241;-30
2021/07/23 21:47:15;;;;;;;4.30;3.63;;;18.70;76.80;;;;;;10415491;28;20214;-29
2021/07/23 21:52:37;;;;;;;4.60;4.10;;;18.70;76.70;;;;;;10422198;28;20261;-29
2021/07/23 21:58:01;;;;;;;4.87;3.80;;;18.70;76.70;;;;;;10413754;28;20620;-30
2021/07/23 22:03:23;;;;;;;4.67;4.00;;;18.70;76.60;;;;;;10417066;28;20233;-30
2021/07/23 22:08:45;;;;;;;4.77;4.20;;;18.70;76.80;;;;;;10412007;28;20228;-33
2021/07/23 22:14:08;;;;;;;4.80;4.30;;;18.60;77.00;;;;;;10414264;28;20407;-30
2021/07/23 22:19:30;;;;;;;5.70;4.80;;;18.50;77.10;;;;;;10413767;28;20547;-29
2021/07/23 22:24:54;;;;;;;7.40;4.70;;;18.50;77.10;;;;;;10389787;28;20581;-31
2021/07/23 22:30:18;;;;;;;4.90;4.20;;;18.50;77.00;;;;;;10413516;28;20303;-29
2021/07/23 22:35:40;;;;;;;5.67;4.87;;;18.50;76.90;;;;;;10404468;28;20202;-30
2021/07/23 22:41:05;;;;;;;6.93;4.53;;;18.40;76.70;;;;;;10413522;28;20225;-29
2021/07/23 22:46:28;;;;;;;5.67;4.93;;;18.40;76.90;;;;;;10414011;28;20218;-34
2021/07/23 22:51:51;;;;;;;6.93;5.00;;;18.40;76.30;;;;;;10413359;28;20221;-30
2021/07/23 22:57:13;;;;;;;6.10;5.20;;;18.40;76.60;;;;;;10413343;28;20569;-30
2021/07/23 23:02:40;;;;;;;5.77;5.13;;;18.40;76.40;;;;;;10371195;28;20221;-30
2021/07/23 23:08:02;;;;;;;6.90;5.60;;;18.30;76.30;;;;;;10445960;28;20236;-28
2021/07/23 23:13:24;;;;;;;6.20;5.60;;;18.30;76.50;;;;;;10425772;28;20281;-28
2021/07/23 23:18:49;;;;;;;7.40;5.73;;;18.30;76.10;;;;;;10412187;28;20193;-29
2021/07/23 23:24:11;;;;;;;6.77;5.60;;;18.20;76.30;;;;;;10411025;28;20293;-28
2021/07/23 23:29:33;;;;;;;8.50;6.43;;;18.20;76.40;;;;;;10447465;28;20213;-29
2021/07/23 23:34:57;;;;;;;8.47;6.60;;;18.20;76.80;;;;;;10409444;28;20550;-29
2021/07/23 23:40:20;;;;;;;7.73;6.27;;;18.20;76.30;;;;;;10407386;28;20221;-29
2021/07/23 23:45:42;;;;;;;8.93;6.43;;;18.20;76.10;;;;;;10407995;28;20197;-29
2021/07/23 23:51:07;;;;;;;8.17;6.23;;;18.10;76.10;;;;;;10406951;28;20236;-30
2021/07/23 23:56:29;;;;;;;8.80;6.07;;;18.20;75.30;;;;;;10411744;28;20288;-33
